sensor_id;sensor_type;location;lat;lon;timestamp;P1;durP1;ratioP1;P2;durP2;ratioP2
35442;SDS011;21561;55.654;37.592;2024-03-29T00:00:42;24.92;;;8.35;;
35442;SDS011;21561;55.654;37.592;2024-03-29T00:03:09;25.30;;;8.13;;
35442;SDS011;21561;55.654;37.592;2024-03-29T00:05:36;23.05;;;7.90;;
35442;SDS011;21561;55.654;37.592;2024-03-29T00:08:03;27.17;;;8.15;;
35442;SDS011;21561;55.654;37.592;2024-03-29T00:10:29;29.83;;;9.88;;
35442;SDS011;21561;55.654;37.592;2024-03-29T00:12:55;27.05;;;9.27;;
35442;SDS011;21561;55.654;37.592;2024-03-29T00:15:21;27.45;;;10.00;;
35442;SDS011;21561;55.654;37.592;2024-03-29T00:17:47;26.33;;;9.07;;
35442;SDS011;21561;55.654;37.592;2024-03-29T00:20:12;26.35;;;8.25;;
35442;SDS011;21561;55.654;37.592;2024-03-29T00:22:38;25.80;;;8.43;;
35442;SDS011;21561;55.654;37.592;2024-03-29T00:25:04;24.90;;;8.65;;
35442;SDS011;21561;55.654;37.592;2024-03-29T00:27:31;27.73;;;8.70;;
35442;SDS011;21561;55.654;37.592;2024-03-29T00:29:58;23.27;;;8.13;;
35442;SDS011;21561;55.654;37.592;2024-03-29T00:32:24;25.05;;;7.85;;
35442;SDS011;21561;55.654;37.592;2024-03-29T00:34:51;24.90;;;8.05;;
35442;SDS011;21561;55.654;37.592;2024-03-29T00:37:18;24.70;;;8.02;;
35442;SDS011;21561;55.654;37.592;2024-03-29T00:39:44;20.77;;;7.72;;
35442;SDS011;21561;55.654;37.592;2024-03-29T00:42:10;28.25;;;8.15;;
35442;SDS011;21561;55.654;37.592;2024-03-29T00:44:42;25.05;;;7.78;;
35442;SDS011;21561;55.654;37.592;2024-03-29T00:47:09;28.15;;;8.52;;
35442;SDS011;21561;55.654;37.592;2024-03-29T00:49:35;21.17;;;7.70;;
35442;SDS011;21561;55.654;37.592;2024-03-29T00:52:02;26.48;;;8.77;;
35442;SDS011;21561;55.654;37.592;2024-03-29T00:54:29;21.25;;;8.10;;
35442;SDS011;21561;55.654;37.592;2024-03-29T00:56:55;23.63;;;8.07;;
35442;SDS011;21561;55.654;37.592;2024-03-29T00:59:21;26.85;;;9.40;;
35442;SDS011;21561;55.654;37.592;2024-03-29T01:01:48;24.13;;;8.40;;
35442;SDS011;21561;55.654;37.592;2024-03-29T01:04:15;22.27;;;8.27;;
35442;SDS011;21561;55.654;37.592;2024-03-29T01:06:41;27.50;;;9.45;;
35442;SDS011;21561;55.654;37.592;2024-03-29T01:09:08;25.15;;;8.93;;
35442;SDS011;21561;55.654;37.592;2024-03-29T01:11:37;24.88;;;9.48;;
35442;SDS011;21561;55.654;37.592;2024-03-29T01:14:04;27.25;;;9.27;;
35442;SDS011;21561;55.654;37.592;2024-03-29T01:16:31;27.20;;;9.73;;
35442;SDS011;21561;55.654;37.592;2024-03-29T01:19:03;28.50;;;9.73;;
35442;SDS011;21561;55.654;37.592;2024-03-29T01:21:30;27.23;;;9.95;;
35442;SDS011;21561;55.654;37.592;2024-03-29T01:23:56;30.10;;;10.50;;
35442;SDS011;21561;55.654;37.592;2024-03-29T01:26:22;30.63;;;10.02;;
35442;SDS011;21561;55.654;37.592;2024-03-29T01:28:48;27.70;;;9.63;;
35442;SDS011;21561;55.654;37.592;2024-03-29T01:31:14;29.38;;;10.05;;
35442;SDS011;21561;55.654;37.592;2024-03-29T01:33:41;30.63;;;9.73;;
35442;SDS011;21561;55.654;37.592;2024-03-29T01:36:07;30.30;;;9.95;;
35442;SDS011;21561;55.654;37.592;2024-03-29T01:38:33;28.60;;;10.30;;
35442;SDS011;21561;55.654;37.592;2024-03-29T01:41:00;23.98;;;9.02;;
35442;SDS011;21561;55.654;37.592;2024-03-29T01:43:26;30.48;;;9.43;;
35442;SDS011;21561;55.654;37.592;2024-03-29T01:45:55;27.65;;;10.40;;
35442;SDS011;21561;55.654;37.592;2024-03-29T01:48:22;25.98;;;9.55;;
35442;SDS011;21561;55.654;37.592;2024-03-29T01:50:49;25.30;;;8.93;;
35442;SDS011;21561;55.654;37.592;2024-03-29T01:53:16;25.15;;;9.95;;
35442;SDS011;21561;55.654;37.592;2024-03-29T01:55:44;27.33;;;9.30;;
35442;SDS011;21561;55.654;37.592;2024-03-29T01:58:11;26.45;;;9.75;;
35442;SDS011;21561;55.654;37.592;2024-03-29T02:00:59;24.48;;;9.13;;
35442;SDS011;21561;55.654;37.592;2024-03-29T02:03:25;23.65;;;9.32;;
35442;SDS011;21561;55.654;37.592;2024-03-29T02:05:51;24.10;;;9.23;;
35442;SDS011;21561;55.654;37.592;2024-03-29T02:08:18;24.13;;;9.35;;
35442;SDS011;21561;55.654;37.592;2024-03-29T02:10:48;29.52;;;9.88;;
35442;SDS011;21561;55.654;37.592;2024-03-29T02:13:14;26.60;;;9.50;;
35442;SDS011;21561;55.654;37.592;2024-03-29T02:15:41;28.80;;;9.70;;
35442;SDS011;21561;55.654;37.592;2024-03-29T02:18:07;26.23;;;9.65;;
35442;SDS011;21561;55.654;37.592;2024-03-29T02:20:34;30.10;;;9.90;;
35442;SDS011;21561;55.654;37.592;2024-03-29T02:23:13;22.52;;;9.25;;
35442;SDS011;21561;55.654;37.592;2024-03-29T02:25:41;26.00;;;9.82;;
35442;SDS011;21561;55.654;37.592;2024-03-29T02:28:07;27.17;;;10.23;;
35442;SDS011;21561;55.654;37.592;2024-03-29T02:30:33;25.63;;;9.63;;
35442;SDS011;21561;55.654;37.592;2024-03-29T02:33:00;24.50;;;9.80;;
35442;SDS011;21561;55.654;37.592;2024-03-29T02:35:26;29.60;;;10.23;;
35442;SDS011;21561;55.654;37.592;2024-03-29T02:37:52;26.33;;;10.10;;
35442;SDS011;21561;55.654;37.592;2024-03-29T02:40:19;29.80;;;9.50;;
35442;SDS011;21561;55.654;37.592;2024-03-29T02:42:45;29.80;;;9.77;;
35442;SDS011;21561;55.654;37.592;2024-03-29T02:45:13;27.42;;;10.18;;
35442;SDS011;21561;55.654;37.592;2024-03-29T02:47:39;26.17;;;10.02;;
35442;SDS011;21561;55.654;37.592;2024-03-29T02:50:05;26.98;;;10.55;;
35442;SDS011;21561;55.654;37.592;2024-03-29T02:52:34;28.15;;;9.93;;
35442;SDS011;21561;55.654;37.592;2024-03-29T02:54:59;35.20;;;10.57;;
35442;SDS011;21561;55.654;37.592;2024-03-29T02:57:25;27.23;;;9.32;;
35442;SDS011;21561;55.654;37.592;2024-03-29T02:59:51;26.38;;;10.40;;
35442;SDS011;21561;55.654;37.592;2024-03-29T03:02:17;26.02;;;10.25;;
35442;SDS011;21561;55.654;37.592;2024-03-29T03:04:43;27.45;;;9.63;;
35442;SDS011;21561;55.654;37.592;2024-03-29T03:07:09;25.13;;;10.30;;
35442;SDS011;21561;55.654;37.592;2024-03-29T03:09:53;29.98;;;11.00;;
35442;SDS011;21561;55.654;37.592;2024-03-29T03:12:38;31.88;;;10.90;;
35442;SDS011;21561;55.654;37.592;2024-03-29T03:15:04;29.17;;;10.57;;
35442;SDS011;21561;55.654;37.592;2024-03-29T03:17:30;26.90;;;10.10;;
35442;SDS011;21561;55.654;37.592;2024-03-29T03:19:57;26.90;;;10.50;;
35442;SDS011;21561;55.654;37.592;2024-03-29T03:22:23;27.40;;;10.02;;
35442;SDS011;21561;55.654;37.592;2024-03-29T03:24:49;25.73;;;9.52;;
35442;SDS011;21561;55.654;37.592;2024-03-29T03:27:15;22.67;;;9.57;;
35442;SDS011;21561;55.654;37.592;2024-03-29T03:29:41;29.98;;;9.77;;
35442;SDS011;21561;55.654;37.592;2024-03-29T03:32:07;25.85;;;10.50;;
35442;SDS011;21561;55.654;37.592;2024-03-29T03:34:33;24.70;;;9.63;;
35442;SDS011;21561;55.654;37.592;2024-03-29T03:36:59;30.23;;;9.98;;
35442;SDS011;21561;55.654;37.592;2024-03-29T03:39:25;24.40;;;9.82;;
35442;SDS011;21561;55.654;37.592;2024-03-29T03:41:51;24.08;;;9.10;;
35442;SDS011;21561;55.654;37.592;2024-03-29T03:44:17;29.05;;;10.35;;
35442;SDS011;21561;55.654;37.592;2024-03-29T03:46:43;26.52;;;10.18;;
35442;SDS011;21561;55.654;37.592;2024-03-29T03:49:09;28.48;;;9.43;;
35442;SDS011;21561;55.654;37.592;2024-03-29T03:51:35;27.23;;;10.13;;
35442;SDS011;21561;55.654;37.592;2024-03-29T03:54:01;29.80;;;10.02;;
35442;SDS011;21561;55.654;37.592;2024-03-29T03:56:27;23.42;;;9.50;;
35442;SDS011;21561;55.654;37.592;2024-03-29T03:58:53;25.58;;;9.52;;
35442;SDS011;21561;55.654;37.592;2024-03-29T04:01:19;31.48;;;9.88;;
35442;SDS011;21561;55.654;37.592;2024-03-29T04:03:44;28.73;;;8.75;;
35442;SDS011;21561;55.654;37.592;2024-03-29T04:06:10;25.40;;;9.55;;
35442;SDS011;21561;55.654;37.592;2024-03-29T04:08:36;26.55;;;9.82;;
35442;SDS011;21561;55.654;37.592;2024-03-29T04:11:02;28.05;;;9.70;;
35442;SDS011;21561;55.654;37.592;2024-03-29T04:13:29;28.08;;;10.38;;
35442;SDS011;21561;55.654;37.592;2024-03-29T04:16:03;33.47;;;11.10;;
35442;SDS011;21561;55.654;37.592;2024-03-29T04:18:30;31.52;;;9.63;;
35442;SDS011;21561;55.654;37.592;2024-03-29T04:20:59;26.70;;;9.82;;
35442;SDS011;21561;55.654;37.592;2024-03-29T04:23:26;25.52;;;9.07;;
35442;SDS011;21561;55.654;37.592;2024-03-29T04:25:53;31.15;;;9.13;;
35442;SDS011;21561;55.654;37.592;2024-03-29T04:28:19;24.45;;;9.07;;
35442;SDS011;21561;55.654;37.592;2024-03-29T04:33:18;28.77;;;9.73;;
35442;SDS011;21561;55.654;37.592;2024-03-29T04:35:55;24.65;;;9.25;;
35442;SDS011;21561;55.654;37.592;2024-03-29T04:38:21;27.10;;;10.43;;
35442;SDS011;21561;55.654;37.592;2024-03-29T04:40:48;25.17;;;9.13;;
35442;SDS011;21561;55.654;37.592;2024-03-29T04:43:14;28.05;;;9.82;;
35442;SDS011;21561;55.654;37.592;2024-03-29T04:45:40;24.42;;;8.88;;
35442;SDS011;21561;55.654;37.592;2024-03-29T04:48:06;28.48;;;9.48;;
35442;SDS011;21561;55.654;37.592;2024-03-29T04:50:32;26.15;;;8.88;;
35442;SDS011;21561;55.654;37.592;2024-03-29T04:52:58;27.13;;;9.73;;
35442;SDS011;21561;55.654;37.592;2024-03-29T04:55:38;24.55;;;8.82;;
35442;SDS011;21561;55.654;37.592;2024-03-29T04:58:04;23.88;;;8.50;;
35442;SDS011;21561;55.654;37.592;2024-03-29T05:00:30;26.67;;;8.07;;
35442;SDS011;21561;55.654;37.592;2024-03-29T05:02:57;24.92;;;8.38;;
35442;SDS011;21561;55.654;37.592;2024-03-29T05:05:34;23.25;;;7.85;;
35442;SDS011;21561;55.654;37.592;2024-03-29T05:08:00;22.10;;;8.32;;
35442;SDS011;21561;55.654;37.592;2024-03-29T05:10:26;22.92;;;7.90;;
35442;SDS011;21561;55.654;37.592;2024-03-29T05:12:52;21.90;;;7.90;;
35442;SDS011;21561;55.654;37.592;2024-03-29T05:15:19;22.75;;;8.18;;
35442;SDS011;21561;55.654;37.592;2024-03-29T05:17:45;25.05;;;8.25;;
35442;SDS011;21561;55.654;37.592;2024-03-29T05:20:11;22.30;;;7.03;;
35442;SDS011;21561;55.654;37.592;2024-03-29T05:22:37;22.92;;;7.20;;
35442;SDS011;21561;55.654;37.592;2024-03-29T05:25:03;22.80;;;7.30;;
35442;SDS011;21561;55.654;37.592;2024-03-29T05:27:29;20.13;;;6.70;;
35442;SDS011;21561;55.654;37.592;2024-03-29T05:29:55;20.33;;;7.40;;
35442;SDS011;21561;55.654;37.592;2024-03-29T05:32:21;23.38;;;7.28;;
35442;SDS011;21561;55.654;37.592;2024-03-29T05:34:47;19.45;;;6.53;;
35442;SDS011;21561;55.654;37.592;2024-03-29T05:37:13;21.35;;;6.40;;
35442;SDS011;21561;55.654;37.592;2024-03-29T05:39:41;22.38;;;6.85;;
35442;SDS011;21561;55.654;37.592;2024-03-29T05:42:07;24.50;;;7.47;;
35442;SDS011;21561;55.654;37.592;2024-03-29T05:44:34;21.45;;;6.63;;
35442;SDS011;21561;55.654;37.592;2024-03-29T05:47:02;21.10;;;6.60;;
35442;SDS011;21561;55.654;37.592;2024-03-29T05:49:30;21.52;;;6.53;;
35442;SDS011;21561;55.654;37.592;2024-03-29T05:51:57;20.27;;;6.82;;
35442;SDS011;21561;55.654;37.592;2024-03-29T05:54:23;21.65;;;6.55;;
35442;SDS011;21561;55.654;37.592;2024-03-29T05:56:50;19.63;;;6.30;;
35442;SDS011;21561;55.654;37.592;2024-03-29T05:59:16;21.58;;;6.82;;
35442;SDS011;21561;55.654;37.592;2024-03-29T06:01:42;23.88;;;7.07;;
35442;SDS011;21561;55.654;37.592;2024-03-29T06:04:07;22.67;;;6.40;;
35442;SDS011;21561;55.654;37.592;2024-03-29T06:06:39;20.42;;;6.40;;
35442;SDS011;21561;55.654;37.592;2024-03-29T06:09:05;17.77;;;6.40;;
35442;SDS011;21561;55.654;37.592;2024-03-29T06:11:31;24.58;;;6.47;;
35442;SDS011;21561;55.654;37.592;2024-03-29T06:13:57;20.83;;;6.72;;
35442;SDS011;21561;55.654;37.592;2024-03-29T06:16:24;20.60;;;6.75;;
35442;SDS011;21561;55.654;37.592;2024-03-29T06:19:09;19.33;;;6.40;;
35442;SDS011;21561;55.654;37.592;2024-03-29T06:21:35;20.35;;;6.20;;
35442;SDS011;21561;55.654;37.592;2024-03-29T06:24:05;19.92;;;6.53;;
35442;SDS011;21561;55.654;37.592;2024-03-29T06:26:33;22.17;;;6.65;;
35442;SDS011;21561;55.654;37.592;2024-03-29T06:29:00;20.73;;;6.85;;
35442;SDS011;21561;55.654;37.592;2024-03-29T06:31:29;21.08;;;6.45;;
35442;SDS011;21561;55.654;37.592;2024-03-29T06:33:57;19.38;;;6.35;;
35442;SDS011;21561;55.654;37.592;2024-03-29T06:36:23;23.85;;;6.50;;
35442;SDS011;21561;55.654;37.592;2024-03-29T06:38:51;21.55;;;7.35;;
35442;SDS011;21561;55.654;37.592;2024-03-29T06:41:17;24.92;;;6.93;;
35442;SDS011;21561;55.654;37.592;2024-03-29T06:43:43;19.27;;;7.47;;
35442;SDS011;21561;55.654;37.592;2024-03-29T06:46:10;24.23;;;6.55;;
35442;SDS011;21561;55.654;37.592;2024-03-29T06:48:37;28.90;;;7.10;;
35442;SDS011;21561;55.654;37.592;2024-03-29T06:51:03;19.50;;;6.55;;
35442;SDS011;21561;55.654;37.592;2024-03-29T06:53:29;23.98;;;6.50;;
35442;SDS011;21561;55.654;37.592;2024-03-29T06:55:55;17.05;;;6.20;;
35442;SDS011;21561;55.654;37.592;2024-03-29T06:58:22;20.67;;;6.30;;
35442;SDS011;21561;55.654;37.592;2024-03-29T07:00:49;19.38;;;6.45;;
35442;SDS011;21561;55.654;37.592;2024-03-29T07:03:16;21.95;;;6.90;;
35442;SDS011;21561;55.654;37.592;2024-03-29T07:05:48;19.15;;;6.47;;
35442;SDS011;21561;55.654;37.592;2024-03-29T07:08:14;20.52;;;6.43;;
35442;SDS011;21561;55.654;37.592;2024-03-29T07:10:39;23.50;;;7.35;;
35442;SDS011;21561;55.654;37.592;2024-03-29T07:13:06;20.95;;;6.45;;
35442;SDS011;21561;55.654;37.592;2024-03-29T07:15:32;22.17;;;6.43;;
35442;SDS011;21561;55.654;37.592;2024-03-29T07:17:59;21.42;;;6.65;;
35442;SDS011;21561;55.654;37.592;2024-03-29T07:20:26;29.15;;;6.57;;
35442;SDS011;21561;55.654;37.592;2024-03-29T07:22:52;23.02;;;7.18;;
35442;SDS011;21561;55.654;37.592;2024-03-29T07:25:18;20.02;;;6.60;;
35442;SDS011;21561;55.654;37.592;2024-03-29T07:27:44;18.48;;;6.82;;
35442;SDS011;21561;55.654;37.592;2024-03-29T07:30:11;23.35;;;7.20;;
35442;SDS011;21561;55.654;37.592;2024-03-29T07:32:37;19.70;;;6.38;;
35442;SDS011;21561;55.654;37.592;2024-03-29T07:35:03;18.60;;;7.28;;
35442;SDS011;21561;55.654;37.592;2024-03-29T07:37:29;27.25;;;7.18;;
35442;SDS011;21561;55.654;37.592;2024-03-29T07:39:55;19.70;;;6.93;;
35442;SDS011;21561;55.654;37.592;2024-03-29T07:42:21;19.33;;;6.90;;
35442;SDS011;21561;55.654;37.592;2024-03-29T07:44:47;23.85;;;7.03;;
35442;SDS011;21561;55.654;37.592;2024-03-29T07:47:13;20.05;;;6.68;;
35442;SDS011;21561;55.654;37.592;2024-03-29T07:49:40;25.38;;;7.57;;
35442;SDS011;21561;55.654;37.592;2024-03-29T07:52:06;23.58;;;7.47;;
35442;SDS011;21561;55.654;37.592;2024-03-29T07:54:34;23.77;;;6.75;;
35442;SDS011;21561;55.654;37.592;2024-03-29T07:57:00;22.80;;;7.75;;
35442;SDS011;21561;55.654;37.592;2024-03-29T07:59:27;23.33;;;7.35;;
35442;SDS011;21561;55.654;37.592;2024-03-29T08:01:53;24.02;;;7.53;;
35442;SDS011;21561;55.654;37.592;2024-03-29T08:04:21;20.95;;;6.80;;
35442;SDS011;21561;55.654;37.592;2024-03-29T08:06:47;23.45;;;7.18;;
35442;SDS011;21561;55.654;37.592;2024-03-29T08:09:13;30.42;;;8.13;;
35442;SDS011;21561;55.654;37.592;2024-03-29T08:11:40;20.92;;;7.15;;
35442;SDS011;21561;55.654;37.592;2024-03-29T08:14:06;23.52;;;7.95;;
35442;SDS011;21561;55.654;37.592;2024-03-29T08:16:33;23.52;;;7.78;;
35442;SDS011;21561;55.654;37.592;2024-03-29T08:18:59;21.02;;;7.35;;
35442;SDS011;21561;55.654;37.592;2024-03-29T08:21:25;22.40;;;7.78;;
35442;SDS011;21561;55.654;37.592;2024-03-29T08:23:53;25.40;;;7.85;;
35442;SDS011;21561;55.654;37.592;2024-03-29T08:26:21;20.38;;;7.65;;
35442;SDS011;21561;55.654;37.592;2024-03-29T08:28:50;21.67;;;7.72;;
35442;SDS011;21561;55.654;37.592;2024-03-29T08:31:16;24.23;;;7.82;;
35442;SDS011;21561;55.654;37.592;2024-03-29T08:33:42;21.60;;;7.43;;
35442;SDS011;21561;55.654;37.592;2024-03-29T08:36:08;21.58;;;7.57;;
35442;SDS011;21561;55.654;37.592;2024-03-29T08:38:37;22.80;;;7.93;;
35442;SDS011;21561;55.654;37.592;2024-03-29T08:41:06;22.05;;;8.15;;
35442;SDS011;21561;55.654;37.592;2024-03-29T08:43:33;21.50;;;8.23;;
35442;SDS011;21561;55.654;37.592;2024-03-29T08:45:59;20.73;;;7.80;;
35442;SDS011;21561;55.654;37.592;2024-03-29T08:48:28;21.15;;;7.63;;
35442;SDS011;21561;55.654;37.592;2024-03-29T08:50:55;22.40;;;8.20;;
35442;SDS011;21561;55.654;37.592;2024-03-29T08:53:21;23.48;;;7.93;;
35442;SDS011;21561;55.654;37.592;2024-03-29T08:55:48;25.42;;;7.68;;
35442;SDS011;21561;55.654;37.592;2024-03-29T08:58:15;20.77;;;6.80;;
35442;SDS011;21561;55.654;37.592;2024-03-29T09:00:41;20.42;;;7.40;;
35442;SDS011;21561;55.654;37.592;2024-03-29T09:03:07;19.95;;;7.35;;
35442;SDS011;21561;55.654;37.592;2024-03-29T09:05:32;18.90;;;7.32;;
35442;SDS011;21561;55.654;37.592;2024-03-29T09:07:58;20.88;;;7.55;;
35442;SDS011;21561;55.654;37.592;2024-03-29T09:10:25;21.00;;;7.53;;
35442;SDS011;21561;55.654;37.592;2024-03-29T09:12:52;23.65;;;8.18;;
35442;SDS011;21561;55.654;37.592;2024-03-29T09:15:19;22.80;;;8.10;;
35442;SDS011;21561;55.654;37.592;2024-03-29T09:17:45;19.83;;;7.13;;
35442;SDS011;21561;55.654;37.592;2024-03-29T09:20:12;23.35;;;7.75;;
35442;SDS011;21561;55.654;37.592;2024-03-29T09:22:40;27.58;;;7.50;;
35442;SDS011;21561;55.654;37.592;2024-03-29T09:25:06;20.48;;;7.88;;
35442;SDS011;21561;55.654;37.592;2024-03-29T09:27:37;22.10;;;7.82;;
35442;SDS011;21561;55.654;37.592;2024-03-29T09:30:06;25.15;;;7.90;;
35442;SDS011;21561;55.654;37.592;2024-03-29T09:32:33;23.17;;;8.25;;
35442;SDS011;21561;55.654;37.592;2024-03-29T09:34:59;26.17;;;8.40;;
35442;SDS011;21561;55.654;37.592;2024-03-29T09:37:26;23.20;;;8.43;;
35442;SDS011;21561;55.654;37.592;2024-03-29T09:39:53;26.52;;;7.93;;
35442;SDS011;21561;55.654;37.592;2024-03-29T09:42:19;23.23;;;8.13;;
35442;SDS011;21561;55.654;37.592;2024-03-29T09:44:47;20.67;;;7.72;;
35442;SDS011;21561;55.654;37.592;2024-03-29T09:47:16;24.17;;;8.35;;
35442;SDS011;21561;55.654;37.592;2024-03-29T09:49:43;23.40;;;9.02;;
35442;SDS011;21561;55.654;37.592;2024-03-29T09:52:11;24.05;;;8.63;;
35442;SDS011;21561;55.654;37.592;2024-03-29T09:54:38;20.52;;;9.10;;
35442;SDS011;21561;55.654;37.592;2024-03-29T09:57:04;23.55;;;8.75;;
35442;SDS011;21561;55.654;37.592;2024-03-29T09:59:30;24.83;;;8.48;;
35442;SDS011;21561;55.654;37.592;2024-03-29T10:01:56;23.35;;;8.82;;
35442;SDS011;21561;55.654;37.592;2024-03-29T10:04:25;23.40;;;8.57;;
35442;SDS011;21561;55.654;37.592;2024-03-29T10:06:54;25.35;;;8.93;;
35442;SDS011;21561;55.654;37.592;2024-03-29T10:09:21;23.65;;;8.90;;
35442;SDS011;21561;55.654;37.592;2024-03-29T10:11:48;22.70;;;8.85;;
35442;SDS011;21561;55.654;37.592;2024-03-29T10:14:14;22.38;;;9.63;;
35442;SDS011;21561;55.654;37.592;2024-03-29T10:16:39;30.13;;;9.40;;
35442;SDS011;21561;55.654;37.592;2024-03-29T10:19:07;21.60;;;9.15;;
35442;SDS011;21561;55.654;37.592;2024-03-29T10:21:33;23.63;;;9.10;;
35442;SDS011;21561;55.654;37.592;2024-03-29T10:24:15;21.05;;;8.60;;
35442;SDS011;21561;55.654;37.592;2024-03-29T10:26:42;25.25;;;8.80;;
35442;SDS011;21561;55.654;37.592;2024-03-29T10:29:09;23.63;;;9.00;;
35442;SDS011;21561;55.654;37.592;2024-03-29T10:31:35;25.83;;;9.05;;
35442;SDS011;21561;55.654;37.592;2024-03-29T10:34:05;26.90;;;9.45;;
35442;SDS011;21561;55.654;37.592;2024-03-29T10:36:31;23.65;;;9.32;;
35442;SDS011;21561;55.654;37.592;2024-03-29T10:39:02;22.20;;;9.20;;
35442;SDS011;21561;55.654;37.592;2024-03-29T10:41:38;21.55;;;9.02;;
35442;SDS011;21561;55.654;37.592;2024-03-29T10:44:05;24.33;;;9.38;;
35442;SDS011;21561;55.654;37.592;2024-03-29T10:46:40;24.65;;;8.93;;
35442;SDS011;21561;55.654;37.592;2024-03-29T10:49:08;22.65;;;9.15;;
35442;SDS011;21561;55.654;37.592;2024-03-29T10:51:37;22.98;;;9.23;;
35442;SDS011;21561;55.654;37.592;2024-03-29T10:54:08;26.83;;;9.88;;
35442;SDS011;21561;55.654;37.592;2024-03-29T10:56:38;25.23;;;9.70;;
35442;SDS011;21561;55.654;37.592;2024-03-29T10:59:18;23.55;;;9.85;;
35442;SDS011;21561;55.654;37.592;2024-03-29T11:01:48;27.98;;;9.85;;
35442;SDS011;21561;55.654;37.592;2024-03-29T11:04:21;22.88;;;10.02;;
35442;SDS011;21561;55.654;37.592;2024-03-29T11:06:49;23.30;;;10.07;;
35442;SDS011;21561;55.654;37.592;2024-03-29T11:09:19;23.67;;;8.87;;
35442;SDS011;21561;55.654;37.592;2024-03-29T11:11:46;23.00;;;10.30;;
35442;SDS011;21561;55.654;37.592;2024-03-29T11:14:27;25.40;;;10.65;;
35442;SDS011;21561;55.654;37.592;2024-03-29T11:17:15;24.75;;;9.93;;
35442;SDS011;21561;55.654;37.592;2024-03-29T11:19:41;29.95;;;9.80;;
35442;SDS011;21561;55.654;37.592;2024-03-29T11:22:08;24.80;;;10.25;;
35442;SDS011;21561;55.654;37.592;2024-03-29T11:24:35;26.55;;;10.00;;
35442;SDS011;21561;55.654;37.592;2024-03-29T11:27:11;25.63;;;9.95;;
35442;SDS011;21561;55.654;37.592;2024-03-29T11:32:07;24.42;;;10.63;;
35442;SDS011;21561;55.654;37.592;2024-03-29T11:34:33;27.05;;;10.18;;
35442;SDS011;21561;55.654;37.592;2024-03-29T11:37:06;25.45;;;9.73;;
35442;SDS011;21561;55.654;37.592;2024-03-29T11:39:33;27.75;;;10.18;;
35442;SDS011;21561;55.654;37.592;2024-03-29T11:42:00;25.83;;;9.90;;
35442;SDS011;21561;55.654;37.592;2024-03-29T11:44:27;21.67;;;9.77;;
35442;SDS011;21561;55.654;37.592;2024-03-29T11:46:54;22.23;;;9.45;;
35442;SDS011;21561;55.654;37.592;2024-03-29T11:49:24;22.15;;;9.88;;
35442;SDS011;21561;55.654;37.592;2024-03-29T11:51:50;25.65;;;10.23;;
35442;SDS011;21561;55.654;37.592;2024-03-29T11:54:15;23.10;;;9.75;;
35442;SDS011;21561;55.654;37.592;2024-03-29T11:56:42;26.50;;;10.55;;
35442;SDS011;21561;55.654;37.592;2024-03-29T11:59:08;24.38;;;9.95;;
35442;SDS011;21561;55.654;37.592;2024-03-29T12:01:35;26.95;;;10.93;;
35442;SDS011;21561;55.654;37.592;2024-03-29T12:04:04;23.33;;;9.75;;
35442;SDS011;21561;55.654;37.592;2024-03-29T12:06:31;24.77;;;9.85;;
35442;SDS011;21561;55.654;37.592;2024-03-29T12:08:57;22.70;;;9.23;;
35442;SDS011;21561;55.654;37.592;2024-03-29T12:11:23;24.35;;;10.20;;
35442;SDS011;21561;55.654;37.592;2024-03-29T12:13:49;23.80;;;10.75;;
35442;SDS011;21561;55.654;37.592;2024-03-29T12:16:15;26.35;;;10.18;;
35442;SDS011;21561;55.654;37.592;2024-03-29T12:18:46;31.23;;;10.75;;
35442;SDS011;21561;55.654;37.592;2024-03-29T12:21:12;28.45;;;10.25;;
35442;SDS011;21561;55.654;37.592;2024-03-29T12:23:46;28.17;;;11.30;;
35442;SDS011;21561;55.654;37.592;2024-03-29T12:26:12;25.15;;;11.05;;
35442;SDS011;21561;55.654;37.592;2024-03-29T12:28:38;28.55;;;11.38;;
35442;SDS011;21561;55.654;37.592;2024-03-29T12:31:04;29.77;;;11.13;;
35442;SDS011;21561;55.654;37.592;2024-03-29T12:33:34;31.27;;;11.27;;
35442;SDS011;21561;55.654;37.592;2024-03-29T12:36:00;25.00;;;11.07;;
35442;SDS011;21561;55.654;37.592;2024-03-29T12:38:26;22.30;;;10.45;;
35442;SDS011;21561;55.654;37.592;2024-03-29T12:40:53;29.63;;;12.35;;
35442;SDS011;21561;55.654;37.592;2024-03-29T12:43:22;25.40;;;10.73;;
35442;SDS011;21561;55.654;37.592;2024-03-29T12:45:50;31.85;;;11.10;;
35442;SDS011;21561;55.654;37.592;2024-03-29T12:48:18;26.58;;;11.88;;
35442;SDS011;21561;55.654;37.592;2024-03-29T12:50:50;24.85;;;10.43;;
35442;SDS011;21561;55.654;37.592;2024-03-29T12:53:19;26.85;;;10.18;;
35442;SDS011;21561;55.654;37.592;2024-03-29T12:55:46;25.77;;;11.88;;
35442;SDS011;21561;55.654;37.592;2024-03-29T12:58:14;28.00;;;11.32;;
35442;SDS011;21561;55.654;37.592;2024-03-29T13:00:43;29.30;;;11.32;;
35442;SDS011;21561;55.654;37.592;2024-03-29T13:03:10;26.75;;;11.23;;
35442;SDS011;21561;55.654;37.592;2024-03-29T13:05:36;26.02;;;11.45;;
35442;SDS011;21561;55.654;37.592;2024-03-29T13:08:07;25.13;;;10.90;;
35442;SDS011;21561;55.654;37.592;2024-03-29T13:10:39;23.05;;;10.45;;
35442;SDS011;21561;55.654;37.592;2024-03-29T13:13:06;28.08;;;11.20;;
35442;SDS011;21561;55.654;37.592;2024-03-29T13:15:32;24.27;;;10.73;;
35442;SDS011;21561;55.654;37.592;2024-03-29T13:18:00;26.77;;;11.40;;
35442;SDS011;21561;55.654;37.592;2024-03-29T13:20:26;25.92;;;11.73;;
35442;SDS011;21561;55.654;37.592;2024-03-29T13:22:52;28.13;;;10.77;;
35442;SDS011;21561;55.654;37.592;2024-03-29T13:25:20;24.38;;;10.70;;
35442;SDS011;21561;55.654;37.592;2024-03-29T13:27:50;25.25;;;10.93;;
35442;SDS011;21561;55.654;37.592;2024-03-29T13:30:22;28.35;;;11.40;;
35442;SDS011;21561;55.654;37.592;2024-03-29T13:32:50;25.33;;;11.27;;
35442;SDS011;21561;55.654;37.592;2024-03-29T13:35:17;25.13;;;11.60;;
35442;SDS011;21561;55.654;37.592;2024-03-29T13:37:48;28.67;;;11.68;;
35442;SDS011;21561;55.654;37.592;2024-03-29T13:40:16;25.35;;;11.20;;
35442;SDS011;21561;55.654;37.592;2024-03-29T13:42:44;24.60;;;11.02;;
35442;SDS011;21561;55.654;37.592;2024-03-29T13:45:10;30.40;;;11.98;;
35442;SDS011;21561;55.654;37.592;2024-03-29T13:47:37;28.08;;;11.68;;
35442;SDS011;21561;55.654;37.592;2024-03-29T13:50:05;23.45;;;10.27;;
35442;SDS011;21561;55.654;37.592;2024-03-29T13:52:32;27.98;;;11.27;;
35442;SDS011;21561;55.654;37.592;2024-03-29T13:54:59;25.63;;;10.65;;
35442;SDS011;21561;55.654;37.592;2024-03-29T13:57:26;27.23;;;10.20;;
35442;SDS011;21561;55.654;37.592;2024-03-29T13:59:52;28.77;;;10.93;;
35442;SDS011;21561;55.654;37.592;2024-03-29T14:02:18;24.27;;;10.35;;
35442;SDS011;21561;55.654;37.592;2024-03-29T14:04:46;26.20;;;10.52;;
35442;SDS011;21561;55.654;37.592;2024-03-29T14:07:13;26.25;;;10.07;;
35442;SDS011;21561;55.654;37.592;2024-03-29T14:09:40;26.38;;;10.85;;
35442;SDS011;21561;55.654;37.592;2024-03-29T14:12:07;29.45;;;11.85;;
35442;SDS011;21561;55.654;37.592;2024-03-29T14:14:34;27.05;;;11.07;;
35442;SDS011;21561;55.654;37.592;2024-03-29T14:17:00;23.25;;;9.55;;
35442;SDS011;21561;55.654;37.592;2024-03-29T14:19:38;23.40;;;10.05;;
35442;SDS011;21561;55.654;37.592;2024-03-29T14:22:05;27.63;;;10.00;;
35442;SDS011;21561;55.654;37.592;2024-03-29T14:24:32;30.13;;;11.07;;